createdAt,value
2018-08-14T00:01:07.406Z,11.07
2018-08-14T00:03:35.987Z,11.70
2018-08-14T00:06:04.551Z,11.23
2018-08-14T00:08:33.134Z,11.77
2018-08-14T00:11:01.635Z,14.10
2018-08-14T00:13:30.208Z,13.90
2018-08-14T00:15:58.729Z,13.33
2018-08-14T00:18:27.270Z,14.57
2018-08-14T00:20:55.782Z,15.40
2018-08-14T00:23:24.352Z,16.97
2018-08-14T00:25:52.866Z,15.20
2018-08-14T00:28:21.398Z,15.27
2018-08-14T00:30:49.892Z,18.57
2018-08-14T00:33:18.454Z,15.30
2018-08-14T00:35:47.038Z,13.90
2018-08-14T00:38:15.591Z,15.43
2018-08-14T00:40:44.127Z,12.93
2018-08-14T00:43:12.627Z,12.23
2018-08-14T00:45:41.145Z,11.80
2018-08-14T00:48:09.771Z,11.60
2018-08-14T00:50:38.355Z,10.80
2018-08-14T00:53:06.947Z,10.73
2018-08-14T00:55:35.533Z,13.07
2018-08-14T00:58:04.099Z,11.70
2018-08-14T01:00:35.110Z,11.10
2018-08-14T01:03:03.666Z,11.47
2018-08-14T01:05:32.259Z,11.77
2018-08-14T01:08:00.769Z,11.97
2018-08-14T01:10:29.355Z,13.70
2018-08-14T01:12:58.846Z,12.53
2018-08-14T01:15:29.613Z,12.00
2018-08-14T01:17:58.578Z,13.20
2018-08-14T01:20:28.700Z,13.00
2018-08-14T01:22:57.234Z,16.37
2018-08-14T01:25:25.756Z,15.77
2018-08-14T01:27:54.803Z,18.20
2018-08-14T01:30:27.884Z,17.13
2018-08-14T01:32:56.422Z,18.30
2018-08-14T01:35:25.017Z,19.00
2018-08-14T01:37:53.525Z,16.23
2018-08-14T01:40:22.078Z,16.57
2018-08-14T01:42:50.657Z,16.60
2018-08-14T01:45:19.245Z,18.37
2018-08-14T01:47:47.828Z,16.83
2018-08-14T01:50:22.570Z,17.37
2018-08-14T01:52:51.110Z,17.40
2018-08-14T01:55:20.794Z,18.07
2018-08-14T01:57:49.668Z,18.13
2018-08-14T02:00:19.426Z,19.90
2018-08-14T02:02:48.034Z,19.87
2018-08-14T02:05:16.601Z,18.80
2018-08-14T02:07:45.110Z,18.73
2018-08-14T02:10:16.384Z,18.00
2018-08-14T02:12:44.907Z,17.03
2018-08-14T02:15:15.333Z,19.80
2018-08-14T02:17:43.981Z,18.73
2018-08-14T02:20:21.366Z,20.83
2018-08-14T02:22:51.428Z,19.20
2018-08-14T02:25:19.975Z,18.63
2018-08-14T02:27:48.534Z,21.80
2018-08-14T02:30:17.551Z,18.70
2018-08-14T02:32:46.299Z,18.67
2018-08-14T02:35:14.931Z,18.80
2018-08-14T02:37:43.461Z,18.17
2018-08-14T02:40:16.595Z,19.30
2018-08-14T02:42:45.451Z,18.17
2018-08-14T02:45:13.990Z,19.23
2018-08-14T02:47:42.494Z,19.60
2018-08-14T02:50:11.485Z,21.07
2018-08-14T02:52:40.207Z,19.73
2018-08-14T02:55:15.151Z,21.10
2018-08-14T02:57:43.690Z,20.43
2018-08-14T03:00:14.510Z,18.80
2018-08-14T03:02:43.055Z,20.97
2018-08-14T03:05:11.625Z,23.40
2018-08-14T03:07:40.299Z,23.70
2018-08-14T03:10:10.665Z,20.83
2018-08-14T03:12:39.240Z,18.67
2018-08-14T03:15:08.626Z,17.83
2018-08-14T03:17:37.211Z,18.13
2018-08-14T03:20:06.258Z,18.83
2018-08-14T03:22:34.842Z,18.50
2018-08-14T03:25:03.455Z,17.90
2018-08-14T03:27:31.977Z,18.27
2018-08-14T03:30:00.507Z,18.20
2018-08-14T03:32:29.086Z,18.47
2018-08-14T03:34:57.611Z,19.43
2018-08-14T03:37:26.114Z,20.73
2018-08-14T03:39:54.613Z,23.00
2018-08-14T03:42:23.126Z,21.63
2018-08-14T03:44:51.639Z,23.63
2018-08-14T03:47:20.186Z,25.40
2018-08-14T03:49:48.682Z,27.03
2018-08-14T03:52:17.211Z,32.53
2018-08-14T03:54:45.718Z,33.20
2018-08-14T03:57:14.223Z,35.53
2018-08-14T03:59:42.705Z,36.23
2018-08-14T04:02:11.287Z,39.53
2018-08-14T04:04:39.850Z,37.90
2018-08-14T04:07:08.407Z,41.20
2018-08-14T04:09:36.894Z,38.50
2018-08-14T04:12:05.524Z,45.60
2018-08-14T04:14:34.007Z,42.03
2018-08-14T04:17:02.512Z,41.43
2018-08-14T04:19:31.021Z,42.10
2018-08-14T04:21:59.571Z,37.90
2018-08-14T04:24:28.043Z,39.50
2018-08-14T04:26:56.620Z,42.93
2018-08-14T04:29:25.341Z,49.67
2018-08-14T04:31:53.875Z,44.30
2018-08-14T04:34:22.401Z,40.80
2018-08-14T04:36:50.912Z,36.93
2018-08-14T04:39:19.444Z,34.80
2018-08-14T04:41:48.046Z,39.17
2018-08-14T04:44:16.553Z,36.67
2018-08-14T04:46:45.087Z,33.87
2018-08-14T04:49:13.624Z,32.80
2018-08-14T04:51:42.245Z,31.17
2018-08-14T04:54:10.717Z,30.97
2018-08-14T04:56:39.271Z,27.70
2018-08-14T04:59:07.843Z,29.03
2018-08-14T05:01:36.662Z,28.17
2018-08-14T05:04:05.323Z,26.47
2018-08-14T05:06:33.878Z,26.93
2018-08-14T05:09:02.765Z,26.93
2018-08-14T05:11:31.265Z,25.33
2018-08-14T05:13:59.731Z,23.97
2018-08-14T05:16:28.268Z,24.03
2018-08-14T05:18:56.814Z,22.63
2018-08-14T05:21:25.507Z,24.50
2018-08-14T05:23:54.007Z,22.77
2018-08-14T05:26:22.546Z,21.27
2018-08-14T05:28:51.073Z,21.87
2018-08-14T05:31:19.617Z,21.43
2018-08-14T05:33:48.592Z,22.83
2018-08-14T05:36:17.052Z,20.57
2018-08-14T05:38:45.868Z,18.97
2018-08-14T05:41:14.403Z,18.23
2018-08-14T05:46:35.882Z,17.83
2018-08-14T05:49:04.430Z,16.40
2018-08-14T05:51:32.902Z,15.70
2018-08-14T05:54:01.435Z,16.73
2018-08-14T05:56:29.966Z,17.03
2018-08-14T05:58:58.501Z,15.80
2018-08-14T06:01:26.988Z,15.37
2018-08-14T06:03:55.544Z,13.60
2018-08-14T06:06:24.098Z,15.27
2018-08-14T06:08:52.589Z,14.60
2018-08-14T06:11:21.069Z,14.47
2018-08-14T06:13:49.627Z,13.40
2018-08-14T06:16:18.179Z,12.57
2018-08-14T06:18:46.713Z,11.60
2018-08-14T06:21:15.201Z,11.27
2018-08-14T06:23:43.711Z,10.40
2018-08-14T06:26:12.205Z,11.07
2018-08-14T06:28:40.722Z,11.23
2018-08-14T06:31:09.236Z,10.27
2018-08-14T06:33:37.769Z,10.27
2018-08-14T06:36:06.337Z,9.57
2018-08-14T06:38:34.882Z,10.80
2018-08-14T06:41:03.470Z,10.37
2018-08-14T06:43:32.042Z,9.90
2018-08-14T06:46:00.563Z,10.37
2018-08-14T06:48:29.174Z,9.73
2018-08-14T06:50:57.725Z,8.50
2018-08-14T06:53:26.210Z,8.33
2018-08-14T06:55:54.694Z,7.40
2018-08-14T06:58:23.243Z,7.93
2018-08-14T07:00:51.775Z,6.50
2018-08-14T07:03:20.285Z,6.30
2018-08-14T07:05:48.772Z,7.40
2018-08-14T07:08:17.290Z,6.77
2018-08-14T07:10:45.836Z,6.80
2018-08-14T07:13:14.357Z,6.53
2018-08-14T07:15:42.906Z,6.00
2018-08-14T07:18:11.422Z,4.90
2018-08-14T07:20:39.913Z,5.00
2018-08-14T07:23:08.493Z,4.47
2018-08-14T07:25:37.986Z,4.50
2018-08-14T07:28:06.636Z,4.00
2018-08-14T07:30:35.173Z,3.20
2018-08-14T07:33:03.712Z,3.47
2018-08-14T07:35:32.326Z,2.98
2018-08-14T07:38:00.845Z,3.42
2018-08-14T07:40:31.416Z,2.80
2018-08-14T07:42:59.979Z,2.95
2018-08-14T07:45:33.114Z,2.58
2018-08-14T07:48:01.813Z,2.87
2018-08-14T07:50:30.381Z,2.55
2018-08-14T07:52:58.885Z,2.40
2018-08-14T07:55:27.429Z,2.87
2018-08-14T07:57:55.997Z,2.45
2018-08-14T08:00:24.513Z,2.20
2018-08-14T08:02:53.666Z,2.00
2018-08-14T08:05:22.492Z,2.10
2018-08-14T08:07:51.462Z,2.25
2018-08-14T08:10:20.104Z,2.27
2018-08-14T08:12:48.993Z,2.17
2018-08-14T08:15:18.796Z,1.98
2018-08-14T08:17:47.853Z,1.87
2018-08-14T08:20:28.521Z,1.85
2018-08-14T08:22:57.112Z,2.15
2018-08-14T08:25:26.684Z,2.10
2018-08-14T08:27:55.526Z,1.50
2018-08-14T08:30:24.155Z,2.45
2018-08-14T08:32:52.751Z,1.70
2018-08-14T08:35:21.511Z,1.60
2018-08-14T08:37:50.013Z,1.60
2018-08-14T08:40:18.580Z,1.98
2018-08-14T08:42:48.269Z,2.30
2018-08-14T08:45:16.828Z,2.17
2018-08-14T08:47:45.339Z,1.90
2018-08-14T08:50:15.617Z,1.75
2018-08-14T08:52:45.006Z,2.80
2018-08-14T08:55:17.929Z,2.90
2018-08-14T08:57:46.441Z,1.60
2018-08-14T09:00:16.956Z,2.22
2018-08-14T09:02:45.461Z,2.08
2018-08-14T09:05:16.207Z,1.67
2018-08-14T09:07:44.922Z,2.02
2018-08-14T09:10:13.476Z,1.67
2018-08-14T09:12:42.809Z,1.40
2018-08-14T09:15:11.905Z,1.60
2018-08-14T09:17:41.829Z,1.67
2018-08-14T09:20:11.921Z,1.20
2018-08-14T09:22:41.457Z,2.58
2018-08-14T09:25:12.647Z,1.45
2018-08-14T09:27:41.977Z,1.95
2018-08-14T09:30:13.029Z,1.30
2018-08-14T09:32:41.880Z,1.60
2018-08-14T09:35:11.401Z,1.92
2018-08-14T09:37:40.825Z,0.90
2018-08-14T09:40:11.841Z,1.12
2018-08-14T09:42:40.457Z,1.00
2018-08-14T09:45:09.542Z,1.75
2018-08-14T09:47:38.375Z,1.80
2018-08-14T09:50:11.462Z,1.10
2018-08-14T09:52:40.009Z,3.70
2018-08-14T09:55:08.539Z,1.50
2018-08-14T09:57:37.124Z,0.80
2018-08-14T10:00:09.136Z,0.90
2018-08-14T10:02:42.962Z,1.92
2018-08-14T10:05:16.649Z,2.00
2018-08-14T10:07:50.432Z,0.68
2018-08-14T10:10:18.928Z,1.70
2018-08-14T10:12:48.285Z,1.25
2018-08-14T10:15:16.821Z,0.90
2018-08-14T10:17:45.323Z,1.55
2018-08-14T10:20:13.809Z,1.05
2018-08-14T10:22:42.321Z,1.00
2018-08-14T10:25:10.848Z,1.90
2018-08-14T10:27:39.329Z,1.50
2018-08-14T10:30:15.176Z,2.30
2018-08-14T10:32:44.457Z,1.70
2018-08-14T10:35:13.024Z,1.40
2018-08-14T10:37:42.338Z,1.27
2018-08-14T10:40:13.106Z,0.80
2018-08-14T10:42:41.687Z,1.17
2018-08-14T10:45:14.381Z,0.90
2018-08-14T10:47:43.686Z,2.98
2018-08-14T10:50:14.874Z,1.62
2018-08-14T10:52:44.101Z,1.32
2018-08-14T10:55:12.613Z,1.10
2018-08-14T10:57:41.276Z,1.10
2018-08-14T11:00:25.358Z,0.90
2018-08-14T11:02:53.884Z,1.10
2018-08-14T11:05:22.977Z,2.08
2018-08-14T11:07:52.093Z,1.00
2018-08-14T11:10:24.106Z,0.93
2018-08-14T11:12:52.849Z,1.00
2018-08-14T11:15:21.294Z,0.90
2018-08-14T11:17:49.878Z,1.40
2018-08-14T11:20:20.639Z,1.77
2018-08-14T11:22:49.681Z,1.40
2018-08-14T11:25:18.361Z,1.30
2018-08-14T11:27:46.956Z,1.20
2018-08-14T11:30:21.031Z,2.00
2018-08-14T11:32:49.714Z,2.30
2018-08-14T11:35:19.120Z,1.70
2018-08-14T11:37:47.721Z,1.45
2018-08-14T11:40:16.207Z,3.33
2018-08-14T11:42:44.771Z,1.07
2018-08-14T11:45:27.008Z,2.55
2018-08-14T11:47:55.662Z,1.45
2018-08-14T11:50:24.186Z,1.62
2018-08-14T11:52:54.007Z,1.57
2018-08-14T11:55:23.177Z,1.50
2018-08-14T11:57:52.641Z,1.55
2018-08-14T12:00:23.377Z,1.60
2018-08-14T12:02:52.959Z,1.57
2018-08-14T12:05:21.458Z,1.40
2018-08-14T12:07:49.985Z,1.50
2018-08-14T12:10:18.813Z,1.60
2018-08-14T12:12:51.265Z,3.25
2018-08-14T12:15:19.756Z,2.25
2018-08-14T12:17:48.810Z,1.50
2018-08-14T12:20:18.769Z,1.42
2018-08-14T12:22:47.273Z,1.45
2018-08-14T12:25:17.137Z,1.30
2018-08-14T12:27:46.374Z,1.42
2018-08-14T12:30:17.278Z,0.90
2018-08-14T12:32:46.071Z,1.10
2018-08-14T12:35:14.604Z,0.90
2018-08-14T12:37:43.159Z,0.80
2018-08-14T12:40:12.396Z,0.88
2018-08-14T12:42:40.978Z,1.00
2018-08-14T12:45:24.553Z,1.62
2018-08-14T12:47:53.560Z,1.00
2018-08-14T12:50:22.851Z,1.05
2018-08-14T12:52:51.376Z,1.10
2018-08-14T12:55:19.893Z,2.30
2018-08-14T12:57:48.793Z,1.15
2018-08-14T13:00:22.137Z,1.20
2018-08-14T13:02:51.469Z,0.80
2018-08-14T13:05:20.348Z,3.15
2018-08-14T13:07:48.881Z,6.08
2018-08-14T13:10:17.402Z,1.30
2018-08-14T13:12:45.925Z,1.10
2018-08-14T13:15:15.064Z,1.10
2018-08-14T13:17:59.661Z,1.00
2018-08-14T13:20:28.156Z,0.90
2018-08-14T13:22:56.800Z,1.85
2018-08-14T13:25:25.324Z,0.90
2018-08-14T13:27:54.162Z,1.12
2018-08-14T13:30:22.949Z,1.32
2018-08-14T13:32:51.790Z,1.00
2018-08-14T13:35:20.304Z,1.10
2018-08-14T13:37:48.845Z,0.90
2018-08-14T13:40:17.460Z,1.10
2018-08-14T13:42:45.849Z,1.25
2018-08-14T13:45:14.382Z,1.47
2018-08-14T13:47:43.433Z,2.47
2018-08-14T13:50:12.800Z,1.32
2018-08-14T13:52:41.455Z,1.52
2018-08-14T13:55:12.015Z,2.10
2018-08-14T13:57:40.814Z,3.52
2018-08-14T14:00:11.593Z,1.80
2018-08-14T14:02:40.658Z,3.08
2018-08-14T14:05:09.248Z,1.87
2018-08-14T14:07:40.099Z,1.22
2018-08-14T14:10:11.150Z,1.80
2018-08-14T14:12:39.724Z,1.30
2018-08-14T14:15:24.076Z,1.55
2018-08-14T14:17:53.662Z,1.30
2018-08-14T14:20:27.071Z,1.92
2018-08-14T14:22:55.760Z,1.25
2018-08-14T14:25:24.346Z,1.35
2018-08-14T14:27:52.953Z,1.00
2018-08-14T14:30:21.587Z,1.45
2018-08-14T14:32:50.233Z,1.92
2018-08-14T14:35:18.811Z,1.20
2018-08-14T14:37:49.474Z,1.37
2018-08-14T14:40:21.762Z,1.20
2018-08-14T14:42:51.872Z,2.02
2018-08-14T14:45:20.521Z,1.22
2018-08-14T14:47:49.101Z,4.08
2018-08-14T14:50:17.706Z,1.17
2018-08-14T14:52:46.527Z,1.40
2018-08-14T14:55:18.188Z,1.00
2018-08-14T14:57:47.179Z,1.00
2018-08-14T15:00:19.309Z,1.10
2018-08-14T15:02:49.249Z,1.30
2018-08-14T15:05:17.983Z,1.30
2018-08-14T15:07:47.893Z,1.20
2018-08-14T15:10:16.510Z,1.40
2018-08-14T15:12:45.493Z,1.15
2018-08-14T15:15:14.312Z,1.67
2018-08-14T15:17:43.535Z,1.87
2018-08-14T15:20:16.508Z,1.50
2018-08-14T15:22:45.868Z,1.42
2018-08-14T15:25:17.765Z,1.77
2018-08-14T15:28:59.919Z,1.20
2018-08-14T15:31:28.981Z,1.50
2018-08-14T15:33:57.959Z,1.40
2018-08-14T15:36:28.536Z,1.20
2018-08-14T15:38:58.643Z,1.60
2018-08-14T15:41:27.780Z,1.57
2018-08-14T15:43:56.519Z,1.32
2018-08-14T15:46:25.245Z,1.52
2018-08-14T15:48:53.888Z,1.77
2018-08-14T15:51:22.561Z,1.70
2018-08-14T15:53:51.558Z,1.87
2018-08-14T15:56:20.297Z,1.62
2018-08-14T15:58:48.905Z,1.62
2018-08-14T16:01:17.686Z,1.60
2018-08-14T16:03:46.344Z,1.30
2018-08-14T16:06:15.032Z,1.30
2018-08-14T16:08:43.598Z,1.60
2018-08-14T16:11:12.238Z,1.17
2018-08-14T16:13:40.962Z,1.20
2018-08-14T16:16:09.649Z,1.30
2018-08-14T16:18:38.170Z,1.62
2018-08-14T16:21:07.848Z,1.30
2018-08-14T16:23:36.364Z,2.10
2018-08-14T16:26:07.109Z,1.47
2018-08-14T16:28:35.700Z,1.72
2018-08-14T16:31:04.281Z,1.60
2018-08-14T16:33:32.969Z,1.20
2018-08-14T16:36:01.516Z,1.65
2018-08-14T16:38:30.189Z,1.55
2018-08-14T16:40:58.880Z,1.40
2018-08-14T16:43:27.401Z,1.25
2018-08-14T16:45:56.015Z,1.30
2018-08-14T16:48:24.565Z,1.47
2018-08-14T16:50:53.106Z,1.55
2018-08-14T16:53:23.746Z,1.55
2018-08-14T16:55:52.261Z,1.30
2018-08-14T16:58:23.000Z,1.60
2018-08-14T17:00:51.605Z,2.10
2018-08-14T17:03:20.441Z,1.97
2018-08-14T17:05:53.224Z,1.83
2018-08-14T17:08:21.716Z,2.00
2018-08-14T17:10:50.730Z,2.40
2018-08-14T17:13:19.531Z,1.20
2018-08-14T17:15:48.092Z,1.50
2018-08-14T17:18:16.663Z,1.60
2018-08-14T17:20:44.007Z,1.35
2018-08-14T17:23:12.484Z,1.42
2018-08-14T17:25:40.977Z,1.62
2018-08-14T17:28:09.492Z,2.77
2018-08-14T17:30:38.066Z,1.80
2018-08-14T17:33:06.608Z,2.60
2018-08-14T17:35:35.216Z,1.77
2018-08-14T17:38:03.718Z,2.10
2018-08-14T17:40:32.201Z,2.17
2018-08-14T17:43:00.713Z,1.80
2018-08-14T17:45:32.029Z,1.87
2018-08-14T17:48:02.080Z,2.37
2018-08-14T17:50:31.154Z,2.50
2018-08-14T17:52:59.809Z,1.97
2018-08-14T17:55:28.790Z,1.80
2018-08-14T17:57:57.561Z,1.60
2018-08-14T18:00:29.957Z,2.07
2018-08-14T18:03:01.898Z,1.80
2018-08-14T18:05:30.452Z,2.27
2018-08-14T18:07:59.028Z,1.80
2018-08-14T18:10:27.805Z,1.93
2018-08-14T18:12:56.393Z,1.90
2018-08-14T18:15:24.921Z,2.57
2018-08-14T18:17:53.464Z,1.67
2018-08-14T18:20:23.266Z,1.67
2018-08-14T18:22:51.933Z,2.00
2018-08-14T18:25:21.628Z,2.07
2018-08-14T18:27:50.657Z,2.13
2018-08-14T18:30:20.128Z,2.30
2018-08-14T18:32:48.737Z,2.10
2018-08-14T18:35:17.609Z,2.13
2018-08-14T18:37:46.525Z,1.60
2018-08-14T18:40:17.009Z,1.73
2018-08-14T18:42:45.842Z,2.10
2018-08-14T18:45:16.329Z,3.30
2018-08-14T18:47:44.953Z,2.70
2018-08-14T18:50:14.646Z,2.63
2018-08-14T18:52:43.425Z,2.40
2018-08-14T18:55:14.098Z,2.23
2018-08-14T18:57:43.417Z,2.57
2018-08-14T19:00:19.639Z,3.90
2018-08-14T19:02:49.491Z,2.20
2018-08-14T19:05:18.104Z,2.93
2018-08-14T19:07:46.746Z,2.37
2018-08-14T19:10:16.451Z,2.60
2018-08-14T19:12:45.999Z,3.37
2018-08-14T19:15:19.690Z,3.70
2018-08-14T19:17:47.192Z,2.40
2018-08-14T19:20:15.757Z,3.07
2018-08-14T19:22:44.516Z,2.30
2018-08-14T19:25:13.167Z,3.33
2018-08-14T19:27:42.532Z,3.60
2018-08-14T19:30:12.530Z,3.63
2018-08-14T19:32:41.513Z,2.97
2018-08-14T19:35:11.453Z,2.60
2018-08-14T19:37:40.211Z,2.43
2018-08-14T19:40:17.868Z,3.33
2018-08-14T19:42:46.893Z,2.20
2018-08-14T19:45:15.393Z,2.50
2018-08-14T19:47:43.994Z,2.90
2018-08-14T19:50:13.909Z,3.00
2018-08-14T19:52:42.477Z,5.63
2018-08-14T19:55:14.598Z,3.40
2018-08-14T19:57:44.669Z,6.20
2018-08-14T20:00:14.606Z,3.10
2018-08-14T20:02:44.060Z,2.83
2018-08-14T20:05:14.406Z,2.33
2018-08-14T20:07:43.176Z,2.83
2018-08-14T20:10:12.933Z,2.90
2018-08-14T20:12:42.018Z,3.53
2018-08-14T20:15:12.308Z,2.87
2018-08-14T20:17:40.969Z,2.67
2018-08-14T20:20:12.177Z,2.53
2018-08-14T20:22:40.698Z,2.57
2018-08-14T20:25:09.294Z,2.30
2018-08-14T20:27:37.856Z,2.33
2018-08-14T20:30:09.260Z,2.33
2018-08-14T20:32:38.050Z,2.70
2018-08-14T20:35:07.904Z,2.60
2018-08-14T20:37:36.453Z,2.40
2018-08-14T20:40:07.541Z,3.10
2018-08-14T20:42:36.141Z,2.93
2018-08-14T20:45:05.402Z,2.93
2018-08-14T20:47:33.905Z,2.97
2018-08-14T20:50:02.415Z,2.60
2018-08-14T20:52:30.919Z,3.03
2018-08-14T20:54:59.473Z,2.80
2018-08-14T20:57:28.001Z,3.20
2018-08-14T20:59:56.513Z,2.80
2018-08-14T21:02:25.021Z,3.37
2018-08-14T21:04:53.601Z,2.80
2018-08-14T21:07:22.117Z,3.50
2018-08-14T21:09:50.660Z,4.40
2018-08-14T21:12:26.785Z,4.97
2018-08-14T21:14:55.642Z,4.00
2018-08-14T21:17:24.206Z,3.60
2018-08-14T21:19:52.794Z,3.00
2018-08-14T21:22:21.329Z,3.10
2018-08-14T21:24:49.913Z,3.53
2018-08-14T21:27:18.470Z,2.90
2018-08-14T21:29:47.062Z,3.20
2018-08-14T21:32:15.556Z,3.40
2018-08-14T21:34:44.089Z,3.00
2018-08-14T21:37:12.590Z,3.00
2018-08-14T21:39:41.123Z,2.87
2018-08-14T21:42:09.688Z,2.80
2018-08-14T21:44:38.196Z,2.80
2018-08-14T21:47:06.752Z,3.43
2018-08-14T21:49:35.237Z,3.97
2018-08-14T21:52:03.926Z,4.37
2018-08-14T21:54:32.461Z,3.57
2018-08-14T21:57:01.025Z,5.23
2018-08-14T21:59:29.525Z,4.73
2018-08-14T22:01:58.132Z,5.30
2018-08-14T22:04:26.658Z,3.93
2018-08-14T22:06:55.222Z,3.53
2018-08-14T22:09:23.713Z,3.93
2018-08-14T22:11:52.269Z,3.20
2018-08-14T22:14:20.797Z,3.67
2018-08-14T22:16:49.417Z,4.60
2018-08-14T22:19:17.929Z,3.53
2018-08-14T22:21:46.503Z,3.67
2018-08-14T22:24:14.988Z,4.60
2018-08-14T22:26:43.525Z,4.80
2018-08-14T22:29:12.038Z,3.70
2018-08-14T22:31:40.622Z,3.40
2018-08-14T22:34:09.113Z,3.20
2018-08-14T22:36:37.647Z,3.57
2018-08-14T22:39:07.793Z,3.23
2018-08-14T22:41:36.576Z,3.60
2018-08-14T22:44:05.136Z,3.40
2018-08-14T22:46:33.866Z,3.70
2018-08-14T22:49:02.349Z,4.30
2018-08-14T22:51:30.914Z,3.97
2018-08-14T22:53:59.436Z,3.83
2018-08-14T22:56:27.959Z,3.80
2018-08-14T22:58:56.476Z,4.00
2018-08-14T23:01:25.027Z,3.67
2018-08-14T23:03:54.422Z,3.87
2018-08-14T23:06:22.981Z,3.60
2018-08-14T23:08:51.514Z,3.43
2018-08-14T23:11:20.063Z,3.70
2018-08-14T23:13:48.606Z,3.97
2018-08-14T23:16:17.141Z,4.30
2018-08-14T23:18:45.657Z,4.40
2018-08-14T23:21:14.205Z,3.90
2018-08-14T23:23:42.713Z,3.50
2018-08-14T23:26:11.335Z,3.87
2018-08-14T23:28:39.837Z,4.43
2018-08-14T23:31:08.405Z,4.17
2018-08-14T23:33:36.937Z,4.00
2018-08-14T23:36:05.505Z,4.10
2018-08-14T23:38:34.056Z,5.17
2018-08-14T23:41:02.551Z,4.10
2018-08-14T23:43:31.062Z,4.20
2018-08-14T23:45:59.591Z,4.40
2018-08-14T23:48:28.121Z,3.93
2018-08-14T23:50:56.636Z,7.30
2018-08-14T23:53:25.206Z,5.00
2018-08-14T23:55:53.766Z,4.53
2018-08-14T23:58:22.284Z,5.13
